createdAt,value
2022-12-19T03:04:16.232Z,22.73
2022-12-19T04:04:15.809Z,24.17
2022-12-19T06:55:05.845Z,22.50
2022-12-19T06:57:32.955Z,23.58
2022-12-19T07:00:00.141Z,22.70
2022-12-19T07:02:30.322Z,25.35
2022-12-19T07:05:05.883Z,23.95
2022-12-19T07:10:00.452Z,23.10
2022-12-19T07:12:27.717Z,23.38
2022-12-19T07:14:54.969Z,22.08
2022-12-19T07:17:23.553Z,21.30
2022-12-19T07:19:51.141Z,22.00
2022-12-19T07:22:18.405Z,23.23
2022-12-19T07:24:45.746Z,23.30
2022-12-19T07:27:12.939Z,23.58
2022-12-19T07:29:40.074Z,21.13
2022-12-19T07:32:07.279Z,22.67
2022-12-19T07:34:34.557Z,21.17
2022-12-19T07:37:01.760Z,23.52
2022-12-19T07:39:28.945Z,23.30
2022-12-19T07:41:56.124Z,23.70
2022-12-19T07:44:23.298Z,23.38
2022-12-19T07:46:50.393Z,22.85
2022-12-19T07:49:22.422Z,22.45
2022-12-19T07:51:50.007Z,21.05
2022-12-19T07:54:17.182Z,21.77
2022-12-19T07:56:44.289Z,23.73
2022-12-19T07:59:13.069Z,21.65
2022-12-19T08:01:40.400Z,21.92
2022-12-19T08:04:07.616Z,22.30
2022-12-19T08:06:40.832Z,20.83
2022-12-19T08:09:08.659Z,23.02
2022-12-19T08:11:35.815Z,19.98
2022-12-19T08:14:02.987Z,22.30
2022-12-19T08:16:30.746Z,21.75
2022-12-19T08:18:57.944Z,23.08
2022-12-19T08:21:25.393Z,23.05
2022-12-19T08:23:52.592Z,22.65
2022-12-19T08:26:25.119Z,23.58
2022-12-19T08:28:53.975Z,22.63
2022-12-19T08:31:22.066Z,21.35
2022-12-19T08:33:49.548Z,22.80
2022-12-19T08:36:20.993Z,21.55
2022-12-19T08:38:48.920Z,20.05
2022-12-19T08:41:16.835Z,23.25
2022-12-19T08:43:48.697Z,20.45
2022-12-19T08:46:17.645Z,21.23
2022-12-19T08:48:45.095Z,21.08
2022-12-19T08:51:13.541Z,20.67
2022-12-19T08:53:41.950Z,22.00
2022-12-19T08:56:20.020Z,22.08
2022-12-19T08:58:47.765Z,21.42
2022-12-19T09:01:19.134Z,21.83
2022-12-19T09:04:14.216Z,21.05
2022-12-19T09:06:34.722Z,22.10
2022-12-19T09:09:04.235Z,22.48
2022-12-19T09:11:31.457Z,19.02
2022-12-19T09:13:58.678Z,19.50
2022-12-19T09:16:27.528Z,20.25
2022-12-19T09:18:56.895Z,21.33
2022-12-19T09:21:27.388Z,21.25
2022-12-19T09:24:01.932Z,19.73
2022-12-19T09:26:32.893Z,20.02
2022-12-19T09:29:01.065Z,21.15
2022-12-19T09:31:29.530Z,20.60
2022-12-19T09:33:56.708Z,22.58
2022-12-19T09:36:24.852Z,20.70
2022-12-19T09:38:56.824Z,19.83
2022-12-19T09:41:31.618Z,20.45
2022-12-19T09:44:17.117Z,20.75
2022-12-19T09:46:44.864Z,21.52
2022-12-19T09:49:14.077Z,21.00
2022-12-19T09:51:49.486Z,20.65
2022-12-19T09:54:37.069Z,18.85
2022-12-19T09:57:18.323Z,20.67
2022-12-19T09:59:57.438Z,19.95
2022-12-19T10:02:46.540Z,20.25
2022-12-19T10:05:47.646Z,21.20
2022-12-19T10:08:26.371Z,21.23
2022-12-19T10:12:38.936Z,20.38
2022-12-19T10:14:15.261Z,21.05
2022-12-19T10:17:28.082Z,18.87
2022-12-19T10:20:18.075Z,20.67
2022-12-19T10:23:09.629Z,22.02
2022-12-19T10:25:55.254Z,18.63
2022-12-19T10:29:02.296Z,19.88
2022-12-19T10:31:42.407Z,19.48
2022-12-19T10:34:22.408Z,20.17
2022-12-19T10:37:27.082Z,19.73
2022-12-19T10:39:45.613Z,19.05
2022-12-19T10:42:22.768Z,19.65
2022-12-19T10:44:50.956Z,19.92
2022-12-19T10:47:18.111Z,19.15
2022-12-19T10:49:45.280Z,19.02
2022-12-19T10:52:13.393Z,20.40
2022-12-19T10:54:42.643Z,21.95
2022-12-19T10:57:24.556Z,19.02
2022-12-19T11:00:03.860Z,19.60
2022-12-19T11:02:35.873Z,20.02
2022-12-19T11:05:05.815Z,18.50
2022-12-19T11:07:33.102Z,20.33
2022-12-19T11:11:40.679Z,18.17
2022-12-19T11:16:25.161Z,19.90
2022-12-19T11:19:41.645Z,19.52
2022-12-19T11:28:56.996Z,19.27
2022-12-19T11:29:25.173Z,18.60
2022-12-19T11:29:54.652Z,19.50
2022-12-19T11:30:48.668Z,17.90
2022-12-19T11:33:18.969Z,18.73
2022-12-19T11:35:51.992Z,17.60
2022-12-19T11:38:29.556Z,19.98
2022-12-19T11:40:57.783Z,19.40
2022-12-19T11:43:54.163Z,18.65
2022-12-19T11:46:40.755Z,18.15
2022-12-19T11:49:13.859Z,19.30
2022-12-19T11:51:58.168Z,19.40
2022-12-19T11:54:57.747Z,18.65
2022-12-19T11:57:25.238Z,19.30
2022-12-19T11:59:53.868Z,19.67
2022-12-19T12:02:42.820Z,19.55
2022-12-19T12:05:24.356Z,19.42
2022-12-19T12:09:40.220Z,19.48
2022-12-19T12:16:16.114Z,19.52
2022-12-19T12:23:42.159Z,18.23
2022-12-19T12:29:13.034Z,19.08
2022-12-19T12:31:16.501Z,17.70
2022-12-19T12:31:38.991Z,19.63
2022-12-19T12:31:50.063Z,18.52
2022-12-19T12:31:56.045Z,18.65
2022-12-19T12:35:11.082Z,19.55
2022-12-19T12:41:56.734Z,19.02
2022-12-19T12:44:32.677Z,19.33
2022-12-19T12:47:22.322Z,19.83
2022-12-19T12:50:04.144Z,18.70
2022-12-19T12:52:38.373Z,18.65
2022-12-19T12:55:16.063Z,18.42
2022-12-19T12:57:43.275Z,19.30
2022-12-19T13:00:33.418Z,17.83
2022-12-19T13:03:07.418Z,18.33
2022-12-19T13:06:04.639Z,15.73
2022-12-19T13:08:38.190Z,18.52
2022-12-19T13:11:44.301Z,19.75
2022-12-19T13:14:37.067Z,17.90
2022-12-19T13:17:08.362Z,17.25
2022-12-19T13:19:38.746Z,17.67
2022-12-19T13:22:08.637Z,16.70
2022-12-19T13:24:41.652Z,17.48
2022-12-19T13:27:20.799Z,19.20
2022-12-19T13:29:59.856Z,17.80
2022-12-19T13:32:33.188Z,17.58
2022-12-19T13:35:27.845Z,18.63
2022-12-19T13:40:02.471Z,18.60
2022-12-19T13:40:43.066Z,17.60
2022-12-19T13:43:37.239Z,19.33
2022-12-19T13:46:07.424Z,16.65
2022-12-19T13:48:46.469Z,18.73
2022-12-19T13:51:14.136Z,17.67
2022-12-19T13:53:43.219Z,17.33
2022-12-19T13:56:18.087Z,18.77
2022-12-19T13:58:53.361Z,19.37
2022-12-19T14:01:28.939Z,19.67
2022-12-19T14:04:02.503Z,18.45
2022-12-19T14:06:43.831Z,18.98
2022-12-19T14:11:32.417Z,19.50
2022-12-19T14:13:48.786Z,17.77
2022-12-19T14:15:44.259Z,19.27
2022-12-19T14:18:44.158Z,20.88
2022-12-19T14:22:11.803Z,19.77
2022-12-19T14:24:23.325Z,20.23
2022-12-19T16:08:27.220Z,21.60
2022-12-19T19:29:35.324Z,23.83
2022-12-19T19:32:02.693Z,21.55
